EYPA/PLQ METAR and TAF weather

Enter ICAO airport designator
Station Type Date Time Source
EYPA METAR 2019/08/24 20:20 UTC NOAA

EYPA 242020Z 03004KT 9999 MIFG NSC 15/15 Q1027


Station Type Date Time Source
EYPA Decoded METAR 2019/08/24 20:20 UTC NOAA

Station name not available
Aug 24, 2019 - 04:20 PM EDT / 2019.08.24 2020 UTC
Wind: from the NNE (030 degrees) at 5 MPH (4 KT):0
Visibility: greater than 7 mile(s):0
Weather: shallow fog
Temperature: 59 F (15 C)
Dew Point: 59 F (15 C)
Relative Humidity: 100%
Pressure (altimeter): 30.33 in. Hg (1027 hPa)
ob: EYPA 242020Z 03004KT 9999 MIFG NSC 15/15 Q1027
cycle: 20

Station Type Date Time Source
EYPA TAF 2019/08/24 18:12 UTC NOAA

TAF COR TAF COR EYPA 241708Z 2418/2518 VRB04KT 5000 BR NSC
TEMPO 2421/2424 3000 MIFG SCT005
TEMPO 2500/2506 0500 FG VV002
BECMG 2506/2507 9000

Example: see airport list